ENVA/TRD METAR and TAF weather

Enter ICAO airport designator
Station Type Date Time Source
ENVA METAR 2020/07/14 06:20 UTC NOAA

ENVA 140620Z 13007KT CAVOK 13/07 Q1010 NOSIG RMK WIND 670FT 10008KT


Station Type Date Time Source
ENVA Decoded METAR 2020/07/14 06:20 UTC NOAA

Trondheim / Vaernes, Norway (ENVA) 63-28N 010-56E 17M
Jul 14, 2020 - 02:20 AM EDT / 2020.07.14 0620 UTC
Wind: from the SE (130 degrees) at 8 MPH (7 KT):0
Visibility: greater than 7 mile(s):0
Temperature: 55 F (13 C)
Dew Point: 44 F (7 C)
Relative Humidity: 66%
Pressure (altimeter): 29.83 in. Hg (1010 hPa)
ob: ENVA 140620Z 13007KT CAVOK 13/07 Q1010 NOSIG RMK WIND 670FT 10008KT
cycle: 6

Station Type Date Time Source
ENVA TAF 2020/07/14 06:57 UTC NOAA

TAF ENVA 140500Z 1406/1506 13008KT CAVOK PROB40
TEMPO 1412/1418 SHRA SCT030CB BKN050

Example: see airport list